Time;durP1;ratioP1;P1;durP2;ratioP2;P2;SDS_P1;SDS_P2;PMS_P1;PMS_P2;Temp;Humidity;BMP_temperature;BMP_pressure;BME280_temperature;BME280_humidity;BME280_pressure;Samples;Min_cycle;Max_cycle;Signal;HPM_P1;HPM_P2
2022/07/23 00:00:54;;;;;;;15.70;9.27;;;30.10;92.70;;;;;;5053199;28;20025;-70
2022/07/23 00:03:20;;;;;;;13.77;8.13;;;30.10;92.80;;;;;;5052865;28;20040;-70
2022/07/23 00:05:45;;;;;;;13.27;8.68;;;30.00;92.90;;;;;;5052834;28;20028;-73
2022/07/23 00:08:12;;;;;;;13.73;8.55;;;30.00;93.00;;;;;;5052917;28;20036;-73
2022/07/23 00:10:38;;;;;;;13.48;8.75;;;30.00;92.80;;;;;;5053112;28;20374;-72
2022/07/23 00:13:04;;;;;;;15.80;9.43;;;30.00;92.70;;;;;;5052973;28;20025;-74
2022/07/23 00:15:29;;;;;;;12.73;8.75;;;30.00;92.80;;;;;;5052928;28;20028;-70
2022/07/23 00:17:55;;;;;;;14.57;10.05;;;30.00;92.80;;;;;;5052794;28;20029;-69
2022/07/23 00:20:21;;;;;;;15.45;9.55;;;30.00;92.90;;;;;;5052892;28;20402;-71
2022/07/23 00:22:51;;;;;;;12.43;8.18;;;30.00;93.00;;;;;;5052850;28;20021;-69
2022/07/23 00:25:17;;;;;;;12.90;9.18;;;30.00;93.00;;;;;;5052607;28;20456;-71
2022/07/23 00:27:43;;;;;;;14.38;10.05;;;30.00;92.90;;;;;;5052583;28;20021;-70
2022/07/23 00:30:10;;;;;;;17.67;10.27;;;30.00;93.00;;;;;;5052692;28;20025;-71
2022/07/23 00:32:56;;;;;;;14.40;9.55;;;30.00;93.10;;;;;;5052711;28;20415;-70
2022/07/23 00:35:24;;;;;;;12.40;9.57;;;30.00;93.10;;;;;;5052564;28;20082;-70
2022/07/23 00:37:50;;;;;;;16.42;9.52;;;30.00;93.10;;;;;;5052443;28;20465;-68
2022/07/23 00:40:16;;;;;;;14.35;9.00;;;30.00;93.00;;;;;;5052562;28;20485;-73
2022/07/23 00:42:42;;;;;;;19.55;9.60;;;30.00;92.90;;;;;;5052815;28;20501;-72
2022/07/23 00:45:08;;;;;;;19.00;10.88;;;30.00;92.90;;;;;;5052473;28;20067;-72
2022/07/23 00:47:34;;;;;;;15.82;9.45;;;30.00;92.90;;;;;;5052694;28;20036;-71
2022/07/23 00:50:00;;;;;;;12.95;9.70;;;30.00;92.90;;;;;;5052748;28;20029;-70
2022/07/23 00:52:26;;;;;;;14.00;10.07;;;30.00;92.80;;;;;;5052682;28;20028;-71
2022/07/23 00:54:52;;;;;;;19.67;10.30;;;30.00;92.70;;;;;;5034506;28;20025;-71
2022/07/23 00:57:18;;;;;;;14.38;9.95;;;30.10;92.80;;;;;;5052285;28;20049;-72
2022/07/23 00:59:44;;;;;;;14.00;9.60;;;30.00;92.90;;;;;;5052439;28;20040;-71
2022/07/23 01:02:10;;;;;;;18.13;10.05;;;30.00;92.90;;;;;;5052308;28;20055;-72
2022/07/23 01:04:36;;;;;;;14.07;10.20;;;30.00;93.00;;;;;;5052426;28;20032;-70
2022/07/23 01:07:02;;;;;;;14.18;10.30;;;29.90;93.20;;;;;;5053950;28;20021;-69
2022/07/23 01:09:28;;;;;;;17.95;10.10;;;29.90;93.40;;;;;;5056005;28;20021;-70
2022/07/23 01:11:58;;;;;;;17.25;9.95;;;29.90;93.50;;;;;;5056235;28;20039;-70
2022/07/23 01:14:24;;;;;;;17.80;10.10;;;29.80;93.60;;;;;;5055947;28;20021;-69
2022/07/23 01:16:50;;;;;;;16.55;10.35;;;29.80;93.90;;;;;;5056500;28;20469;-71
2022/07/23 01:19:17;;;;;;;17.10;9.70;;;29.70;94.10;;;;;;5039925;28;20037;-70
2022/07/23 01:21:45;;;;;;;16.40;9.82;;;29.70;94.10;;;;;;5056365;28;20021;-70
2022/07/23 01:24:12;;;;;;;14.77;9.27;;;29.70;94.20;;;;;;5037958;28;20470;-71
2022/07/23 01:26:40;;;;;;;14.95;9.77;;;29.70;94.30;;;;;;5055757;28;20526;-69
2022/07/23 01:29:06;;;;;;;21.52;10.65;;;29.70;94.10;;;;;;5055277;28;20071;-70
2022/07/23 01:31:32;;;;;;;16.27;11.00;;;29.60;94.10;;;;;;5055521;28;20037;-69
2022/07/23 01:33:58;;;;;;;15.32;9.80;;;29.60;94.20;;;;;;5055859;28;20025;-70
2022/07/23 01:36:23;;;;;;;16.85;10.43;;;29.50;94.30;;;;;;5055464;28;20024;-70
2022/07/23 01:38:49;;;;;;;15.38;9.75;;;29.50;94.10;;;;;;5055344;28;20036;-72
2022/07/23 01:41:15;;;;;;;16.17;10.10;;;29.50;93.90;;;;;;5055661;28;20466;-75
2022/07/23 01:43:41;;;;;;;17.25;10.15;;;29.60;93.80;;;;;;5055269;28;20059;-71
2022/07/23 01:46:07;;;;;;;23.13;10.38;;;29.60;93.60;;;;;;5055392;28;20029;-70
2022/07/23 01:48:33;;;;;;;20.17;10.35;;;29.60;93.40;;;;;;5037746;28;20017;-69
2022/07/23 01:50:59;;;;;;;18.25;11.55;;;29.60;93.30;;;;;;5055421;28;20377;-69
2022/07/23 01:53:25;;;;;;;14.98;9.77;;;29.50;93.20;;;;;;5055289;28;20040;-69
2022/07/23 01:55:50;;;;;;;15.18;9.75;;;29.50;93.20;;;;;;5054984;28;20052;-69
2022/07/23 01:58:16;;;;;;;16.42;9.68;;;29.50;93.10;;;;;;5055115;28;20072;-70
2022/07/23 02:00:42;;;;;;;16.80;9.98;;;29.50;93.00;;;;;;5055500;28;20087;-69
2022/07/23 02:03:08;;;;;;;21.45;10.20;;;29.40;93.10;;;;;;5055401;28;20069;-71
2022/07/23 02:05:33;;;;;;;14.40;9.68;;;29.40;92.90;;;;;;5055399;28;20533;-70
2022/07/23 02:08:00;;;;;;;16.50;10.20;;;29.40;92.80;;;;;;5055224;28;20101;-69
2022/07/23 02:10:27;;;;;;;17.38;8.95;;;29.40;92.70;;;;;;5054884;28;20478;-72
2022/07/23 02:12:53;;;;;;;22.55;9.90;;;29.30;92.60;;;;;;5055091;28;20453;-70
2022/07/23 02:15:18;;;;;;;18.25;9.75;;;29.30;92.70;;;;;;5054838;28;20029;-71
2022/07/23 02:17:44;;;;;;;16.98;8.57;;;29.30;92.30;;;;;;5054344;28;20105;-70
2022/07/23 02:20:11;;;;;;;12.50;8.60;;;29.30;91.80;;;;;;5054379;28;20033;-71
2022/07/23 02:22:37;;;;;;;16.05;8.50;;;29.30;91.10;;;;;;5054597;28;20028;-68
2022/07/23 02:25:05;;;;;;;14.45;9.05;;;29.20;91.10;;;;;;5054502;28;20028;-70
2022/07/23 02:27:30;;;;;;;14.88;9.60;;;29.30;91.20;;;;;;5054626;28;20033;-68
2022/07/23 02:29:57;;;;;;;12.65;8.68;;;29.20;91.20;;;;;;5054659;28;20040;-70
2022/07/23 02:32:23;;;;;;;15.00;9.52;;;29.20;91.30;;;;;;5054666;28;20160;-70
2022/07/23 02:34:49;;;;;;;12.68;8.68;;;29.20;91.50;;;;;;5054591;28;20488;-69
2022/07/23 02:37:15;;;;;;;13.63;9.32;;;29.10;91.60;;;;;;5054544;28;20017;-70
2022/07/23 02:39:41;;;;;;;11.95;8.25;;;29.10;91.60;;;;;;5056284;28;20036;-69
2022/07/23 02:42:07;;;;;;;13.32;8.95;;;29.20;91.30;;;;;;5057362;28;20040;-70
2022/07/23 02:44:32;;;;;;;13.57;8.45;;;29.10;91.10;;;;;;5054640;28;20438;-69
2022/07/23 02:46:58;;;;;;;12.10;8.88;;;29.20;91.10;;;;;;5054365;28;20484;-70
2022/07/23 02:49:24;;;;;;;19.63;9.48;;;29.10;91.10;;;;;;5054405;28;20389;-69
2022/07/23 02:51:50;;;;;;;14.02;10.23;;;29.10;91.20;;;;;;5036165;28;20111;-69
2022/07/23 02:54:16;;;;;;;18.75;10.32;;;29.10;91.70;;;;;;5054020;28;20036;-70
2022/07/23 02:56:41;;;;;;;15.20;9.75;;;29.10;91.70;;;;;;5053752;28;20445;-70
2022/07/23 02:59:07;;;;;;;14.13;10.82;;;29.10;92.00;;;;;;5053965;28;20032;-70
2022/07/23 03:01:33;;;;;;;13.43;10.35;;;29.10;92.30;;;;;;5053754;28;20066;-70
2022/07/23 03:03:59;;;;;;;16.52;10.30;;;29.10;92.40;;;;;;5053875;28;20029;-70
2022/07/23 03:06:25;;;;;;;14.63;10.00;;;29.10;92.70;;;;;;5053935;28;20028;-69
2022/07/23 03:08:51;;;;;;;16.85;9.70;;;29.10;92.90;;;;;;5053827;28;20029;-68
2022/07/23 03:11:16;;;;;;;12.48;9.57;;;29.20;93.00;;;;;;5035936;28;20013;-70
2022/07/23 03:13:42;;;;;;;15.75;8.65;;;29.10;92.70;;;;;;5054004;28;20025;-72
2022/07/23 03:16:08;;;;;;;13.30;7.88;;;29.10;90.50;;;;;;5053702;28;20017;-72
2022/07/23 03:18:34;;;;;;;10.77;7.82;;;29.10;87.30;;;;;;5053319;28;20044;-73
2022/07/23 03:21:00;;;;;;;17.15;7.85;;;29.10;85.10;;;;;;5054761;28;20427;-71
2022/07/23 03:23:25;;;;;;;12.82;8.07;;;29.00;82.10;;;;;;5055593;28;20025;-69
2022/07/23 03:25:51;;;;;;;12.38;7.60;;;28.90;80.00;;;;;;5054295;28;20104;-70
2022/07/23 03:28:18;;;;;;;13.98;7.78;;;28.90;78.50;;;;;;5054941;28;20029;-70
2022/07/23 03:30:48;;;;;;;13.20;8.30;;;28.80;78.10;;;;;;5054528;28;20041;-70
2022/07/23 03:33:16;;;;;;;13.93;8.25;;;28.80;76.20;;;;;;5053611;28;20029;-68
2022/07/23 03:35:43;;;;;;;14.95;7.55;;;28.70;75.20;;;;;;5053589;28;20036;-69
2022/07/23 03:38:08;;;;;;;15.48;8.50;;;28.60;74.40;;;;;;5053004;28;20080;-69
2022/07/23 03:40:34;;;;;;;14.43;8.07;;;28.60;74.40;;;;;;5053323;28;20421;-70
2022/07/23 03:43:00;;;;;;;18.50;8.30;;;28.50;73.80;;;;;;5053392;28;20424;-70
2022/07/23 03:45:26;;;;;;;13.50;8.52;;;28.50;73.50;;;;;;5053233;28;20451;-70
2022/07/23 03:47:52;;;;;;;13.82;8.82;;;28.50;73.70;;;;;;5053344;28;20044;-69
2022/07/23 03:50:18;;;;;;;12.75;8.07;;;28.40;73.30;;;;;;5053363;28;20025;-70
2022/07/23 03:52:43;;;;;;;15.65;8.25;;;28.40;73.30;;;;;;5053766;28;20036;-70
2022/07/23 03:55:09;;;;;;;15.88;8.13;;;28.50;72.80;;;;;;5067696;22;20111;-72
2022/07/23 03:57:35;;;;;;;12.32;8.35;;;28.60;72.70;;;;;;5032204;28;20045;-75
2022/07/23 04:00:02;;;;;;;12.73;8.20;;;28.60;72.60;;;;;;5033568;28;20495;-73
2022/07/23 04:02:28;;;;;;;16.23;7.68;;;28.60;72.20;;;;;;5033216;28;20045;-75
2022/07/23 04:04:53;;;;;;;13.45;8.25;;;28.60;72.10;;;;;;5036496;28;20576;-76
2022/07/23 04:07:19;;;;;;;11.73;7.93;;;28.50;72.40;;;;;;5034762;28;20482;-69
2022/07/23 04:09:45;;;;;;;13.93;8.25;;;28.50;72.30;;;;;;5053510;28;20108;-71
2022/07/23 04:12:10;;;;;;;13.45;8.23;;;28.50;72.30;;;;;;5052924;28;20083;-75
2022/07/23 04:14:36;;;;;;;13.88;7.60;;;28.50;72.10;;;;;;5052915;28;20466;-73
2022/07/23 04:17:02;;;;;;;13.32;7.78;;;28.50;72.10;;;;;;5053065;28;20025;-71
2022/07/23 04:19:28;;;;;;;12.48;6.85;;;28.50;71.80;;;;;;5052708;28;20400;-70
2022/07/23 04:21:53;;;;;;;11.32;7.20;;;28.50;70.90;;;;;;5052877;28;20436;-70
2022/07/23 04:24:19;;;;;;;15.45;6.93;;;28.60;70.50;;;;;;5052812;28;20036;-68
2022/07/23 04:26:45;;;;;;;11.15;7.03;;;28.60;70.00;;;;;;5052955;28;20021;-72
2022/07/23 04:29:11;;;;;;;14.70;7.28;;;28.60;69.60;;;;;;5053033;28;20029;-70
2022/07/23 04:31:37;;;;;;;10.98;7.03;;;28.50;69.30;;;;;;5052451;28;20025;-70
2022/07/23 04:34:03;;;;;;;11.68;6.97;;;28.50;69.20;;;;;;5052838;28;20103;-70
2022/07/23 04:36:29;;;;;;;14.13;7.22;;;28.50;69.30;;;;;;5052634;28;20068;-70
2022/07/23 04:38:55;;;;;;;10.13;7.00;;;28.50;69.50;;;;;;5052615;28;20072;-70
2022/07/23 04:41:21;;;;;;;13.73;6.38;;;28.50;69.00;;;;;;5053506;28;20021;-70
2022/07/23 04:43:46;;;;;;;11.35;6.18;;;28.60;69.20;;;;;;5056969;28;20028;-71
2022/07/23 04:46:13;;;;;;;11.10;7.07;;;28.60;68.70;;;;;;5056459;28;20048;-70
2022/07/23 04:48:39;;;;;;;9.80;6.35;;;28.50;68.70;;;;;;5056703;28;20466;-69
2022/07/23 04:51:05;;;;;;;9.73;7.05;;;28.50;68.30;;;;;;5056830;28;20036;-69
2022/07/23 04:53:31;;;;;;;12.02;7.03;;;28.40;68.10;;;;;;5038669;28;20437;-69
2022/07/23 04:55:57;;;;;;;10.20;6.88;;;28.30;67.80;;;;;;5062647;28;20048;-70
2022/07/23 04:58:23;;;;;;;10.43;6.50;;;28.30;67.70;;;;;;5076267;28;20028;-70
2022/07/23 05:00:48;;;;;;;11.38;6.32;;;28.30;67.40;;;;;;5076549;28;20024;-70
2022/07/23 05:03:15;;;;;;;7.90;5.97;;;28.40;67.00;;;;;;5075859;28;20025;-70
2022/07/23 05:05:41;;;;;;;8.77;5.65;;;28.40;66.70;;;;;;5075992;28;20031;-68
2022/07/23 05:08:07;;;;;;;12.02;6.90;;;28.50;66.60;;;;;;5076338;28;20107;-69
2022/07/23 05:10:32;;;;;;;10.55;6.35;;;28.50;66.10;;;;;;5076071;28;20039;-69
2022/07/23 05:12:58;;;;;;;11.68;6.53;;;28.50;65.30;;;;;;5057699;28;20048;-69
2022/07/23 05:15:24;;;;;;;11.48;7.32;;;28.60;64.80;;;;;;5076129;28;20052;-69
2022/07/23 05:17:49;;;;;;;11.43;6.22;;;28.60;64.40;;;;;;5076570;28;20039;-69
2022/07/23 05:20:15;;;;;;;12.07;6.25;;;28.80;64.00;;;;;;5076411;28;20028;-69
2022/07/23 05:22:41;;;;;;;12.93;6.15;;;29.00;63.40;;;;;;5075879;28;20055;-70
2022/07/23 05:25:08;;;;;;;9.65;6.28;;;29.10;62.90;;;;;;5058308;28;20107;-68
2022/07/23 05:27:33;;;;;;;11.45;6.13;;;29.30;62.10;;;;;;5076044;28;20381;-71
2022/07/23 05:30:01;;;;;;;10.88;6.18;;;29.40;61.70;;;;;;5075938;28;20048;-71
2022/07/23 05:32:26;;;;;;;13.18;6.70;;;29.70;60.60;;;;;;5075685;28;20021;-70
2022/07/23 05:34:52;;;;;;;9.30;6.65;;;30.00;60.30;;;;;;5075485;28;20035;-69
2022/07/23 05:37:18;;;;;;;10.15;5.97;;;30.30;59.20;;;;;;5075725;28;20031;-73
2022/07/23 05:39:43;;;;;;;13.15;6.50;;;30.40;58.80;;;;;;5075596;28;20319;-75
2022/07/23 05:42:09;;;;;;;9.30;6.45;;;30.70;58.40;;;;;;5075488;28;20023;-75
2022/07/23 05:44:35;;;;;;;10.75;6.03;;;31.00;57.70;;;;;;5075298;28;20379;-75
2022/07/23 05:47:01;;;;;;;12.15;6.10;;;31.30;57.20;;;;;;5075528;28;20020;-74
2022/07/23 05:49:27;;;;;;;16.88;7.05;;;31.50;57.10;;;;;;5075212;28;20029;-72
2022/07/23 05:51:52;;;;;;;14.90;8.00;;;31.70;57.10;;;;;;5075478;28;20023;-76
2022/07/23 05:54:18;;;;;;;15.30;7.25;;;31.80;57.80;;;;;;5074198;28;20029;-74
2022/07/23 05:56:44;;;;;;;14.40;8.77;;;31.90;58.00;;;;;;5074828;28;20051;-74
2022/07/23 05:59:11;;;;;;;15.13;9.52;;;32.20;58.10;;;;;;5075091;28;20124;-74
2022/07/23 06:01:37;;;;;;;13.32;9.50;;;32.30;58.80;;;;;;5075334;28;20040;-73
2022/07/23 06:04:03;;;;;;;14.85;8.00;;;32.30;59.30;;;;;;5075083;28;20028;-76
2022/07/23 06:06:29;;;;;;;16.85;9.18;;;32.30;59.20;;;;;;5074853;28;20017;-76
2022/07/23 06:08:54;;;;;;;20.67;8.55;;;32.40;58.80;;;;;;5075144;28;20024;-74
2022/07/23 06:11:20;;;;;;;14.05;8.63;;;32.60;58.30;;;;;;5075052;28;20027;-77
2022/07/23 06:13:46;;;;;;;14.20;9.75;;;32.80;58.50;;;;;;5057255;28;20029;-72
2022/07/23 06:16:11;;;;;;;16.20;9.20;;;32.90;59.00;;;;;;5075005;28;20016;-77
2022/07/23 06:18:37;;;;;;;13.18;8.65;;;33.10;59.10;;;;;;5074915;28;20442;-74
2022/07/23 06:21:03;;;;;;;14.50;9.35;;;33.30;59.00;;;;;;5056689;28;20131;-74
2022/07/23 06:23:29;;;;;;;14.32;9.70;;;33.40;59.10;;;;;;5074698;28;20050;-73
2022/07/23 06:25:54;;;;;;;17.63;8.35;;;33.70;58.90;;;;;;5074798;28;20448;-75
2022/07/23 06:28:20;;;;;;;11.07;9.10;;;33.70;58.50;;;;;;5056832;28;20031;-73
2022/07/23 06:30:46;;;;;;;13.30;8.88;;;33.90;58.10;;;;;;5075177;28;20066;-74
2022/07/23 06:33:12;;;;;;;15.70;8.57;;;34.00;58.20;;;;;;5074913;28;20032;-74
2022/07/23 06:35:37;;;;;;;14.63;9.25;;;34.20;58.20;;;;;;5074369;28;20457;-73
2022/07/23 06:38:03;;;;;;;15.38;9.30;;;34.30;58.40;;;;;;5074254;28;20037;-75
2022/07/23 06:40:29;;;;;;;13.23;9.38;;;34.40;58.30;;;;;;5074615;28;20021;-73
2022/07/23 06:42:55;;;;;;;14.38;9.82;;;34.50;58.30;;;;;;5074561;28;20046;-75
2022/07/23 06:45:20;;;;;;;14.82;9.90;;;34.50;58.10;;;;;;5074118;28;20071;-76
2022/07/23 06:47:46;;;;;;;12.93;9.98;;;34.40;58.70;;;;;;5055695;28;20109;-74
2022/07/23 06:50:12;;;;;;;17.15;9.20;;;34.40;58.70;;;;;;5073909;28;20031;-74
2022/07/23 06:52:38;;;;;;;14.60;8.95;;;34.40;58.60;;;;;;5074347;28;20016;-72
2022/07/23 06:55:04;;;;;;;13.38;8.90;;;34.50;58.70;;;;;;5074236;28;20478;-76
2022/07/23 06:57:30;;;;;;;15.27;10.82;;;34.60;57.90;;;;;;5073631;28;20041;-74
2022/07/23 06:59:55;;;;;;;21.05;10.32;;;34.80;57.70;;;;;;5073879;28;20175;-73
2022/07/23 07:02:21;;;;;;;14.65;8.25;;;34.90;57.40;;;;;;5073900;28;20066;-72
2022/07/23 07:04:47;;;;;;;17.30;8.93;;;35.10;57.30;;;;;;5073803;28;20082;-74
2022/07/23 07:07:12;;;;;;;21.15;9.27;;;35.20;57.20;;;;;;5073875;28;20024;-73
2022/07/23 07:09:38;;;;;;;18.63;8.57;;;35.10;57.00;;;;;;5073699;28;20052;-72
2022/07/23 07:12:04;;;;;;;14.77;8.75;;;35.00;57.00;;;;;;5055514;28;20112;-72
2022/07/23 07:14:30;;;;;;;16.48;8.52;;;35.10;57.00;;;;;;5073444;28;20423;-74
2022/07/23 07:16:56;;;;;;;16.88;8.35;;;35.20;56.20;;;;;;5073304;28;20023;-73
2022/07/23 07:19:21;;;;;;;17.95;8.23;;;35.10;56.50;;;;;;5073589;28;20032;-73
2022/07/23 07:21:47;;;;;;;13.65;7.63;;;35.20;56.30;;;;;;5073803;28;20465;-72
2022/07/23 07:24:13;;;;;;;11.35;6.90;;;35.30;55.50;;;;;;5073855;28;20035;-73
2022/07/23 07:26:39;;;;;;;12.05;7.10;;;35.50;55.20;;;;;;5073698;28;20036;-71
2022/07/23 07:29:05;;;;;;;16.23;7.57;;;35.60;54.50;;;;;;5073803;28;20017;-72
2022/07/23 07:31:32;;;;;;;13.60;7.68;;;35.70;53.80;;;;;;5073501;28;20059;-73
2022/07/23 07:33:58;;;;;;;11.90;7.53;;;35.70;53.80;;;;;;5073242;28;20021;-75
2022/07/23 07:36:24;;;;;;;12.52;6.65;;;35.70;52.60;;;;;;5072944;28;20028;-70
2022/07/23 07:38:51;;;;;;;11.95;7.18;;;35.50;52.90;;;;;;5073052;28;20501;-71
2022/07/23 07:41:17;;;;;;;16.67;7.15;;;35.40;53.00;;;;;;5073334;28;20092;-72
2022/07/23 07:43:42;;;;;;;14.35;9.65;;;35.30;52.10;;;;;;5073185;28;20367;-70
2022/07/23 07:46:09;;;;;;;19.02;11.73;;;35.30;52.80;;;;;;5072788;28;20028;-70
2022/07/23 07:48:36;;;;;;;13.25;7.53;;;35.40;53.80;;;;;;5072993;28;20039;-70
2022/07/23 07:51:04;;;;;;;15.80;7.30;;;35.40;51.00;;;;;;5073307;28;20039;-70
2022/07/23 07:53:29;;;;;;;14.82;7.30;;;35.40;50.70;;;;;;5072736;28;20032;-75
2022/07/23 07:55:55;;;;;;;10.30;6.50;;;35.50;50.30;;;;;;5072837;28;20040;-76
2022/07/23 07:58:20;;;;;;;14.63;7.07;;;35.60;49.90;;;;;;5073278;28;20027;-74
2022/07/23 08:00:46;;;;;;;7.97;5.32;;;35.60;49.60;;;;;;5073668;28;20107;-73
2022/07/23 08:03:12;;;;;;;8.73;5.57;;;35.60;49.10;;;;;;5072798;28;20361;-72
2022/07/23 08:05:38;;;;;;;10.50;5.82;;;35.70;48.50;;;;;;5072735;28;20052;-76
2022/07/23 08:08:04;;;;;;;11.13;5.75;;;35.70;47.10;;;;;;5072702;28;20487;-74
2022/07/23 08:10:31;;;;;;;13.27;5.68;;;35.60;46.90;;;;;;5053734;28;20036;-70
2022/07/23 08:12:58;;;;;;;14.13;5.75;;;35.70;46.40;;;;;;5072905;28;20037;-72
2022/07/23 08:15:25;;;;;;;13.63;5.35;;;35.60;46.00;;;;;;5072428;28;20016;-76
2022/07/23 08:17:51;;;;;;;9.70;5.55;;;35.60;46.00;;;;;;5072167;28;20067;-71
2022/07/23 08:20:20;;;;;;;8.13;5.13;;;35.60;46.00;;;;;;5072469;28;20079;-73
2022/07/23 08:22:50;;;;;;;7.57;5.47;;;35.50;45.90;;;;;;5072447;28;20023;-72
2022/07/23 08:25:30;;;;;;;8.18;5.22;;;35.40;46.80;;;;;;5072506;28;20031;-72
2022/07/23 08:27:57;;;;;;;12.00;5.13;;;35.30;46.30;;;;;;5072915;28;20099;-75
2022/07/23 08:30:24;;;;;;;8.27;5.47;;;35.20;45.70;;;;;;5072746;28;20464;-73
2022/07/23 08:33:01;;;;;;;11.00;5.50;;;35.20;46.10;;;;;;5072634;28;20037;-76
2022/07/23 08:35:33;;;;;;;9.93;5.95;;;35.10;46.10;;;;;;5072893;28;20029;-74
2022/07/23 08:38:01;;;;;;;12.52;5.60;;;35.10;45.90;;;;;;5072846;28;20021;-77
2022/07/23 08:40:28;;;;;;;10.02;5.38;;;35.00;45.80;;;;;;5072825;28;20047;-75
2022/07/23 08:42:54;;;;;;;10.52;5.07;;;34.80;46.00;;;;;;5054428;28;20024;-75
2022/07/23 08:45:22;;;;;;;10.45;5.70;;;34.80;46.10;;;;;;5072073;28;20028;-72
2022/07/23 08:47:56;;;;;;;14.25;5.50;;;34.80;46.10;;;;;;5072325;28;20070;-71
2022/07/23 08:50:24;;;;;;;13.25;6.32;;;34.70;46.70;;;;;;5072497;28;20020;-73
2022/07/23 08:52:51;;;;;;;13.68;6.78;;;34.70;46.40;;;;;;5072153;28;20039;-75
2022/07/23 08:55:18;;;;;;;16.98;6.47;;;34.70;46.60;;;;;;5071888;28;20434;-74
2022/07/23 08:57:47;;;;;;;12.15;6.78;;;34.60;46.60;;;;;;5054538;28;20446;-71
2022/07/23 09:00:13;;;;;;;13.65;7.13;;;34.60;46.90;;;;;;5072022;28;20105;-74
2022/07/23 09:02:41;;;;;;;16.65;7.15;;;34.60;46.90;;;;;;5072773;28;20036;-74
2022/07/23 09:05:08;;;;;;;9.80;6.47;;;34.50;46.70;;;;;;5054050;28;20044;-74
2022/07/23 09:07:34;;;;;;;14.23;6.57;;;34.40;47.20;;;;;;5071966;28;20021;-75
2022/07/23 09:10:08;;;;;;;8.85;5.78;;;34.30;47.70;;;;;;5072020;28;20020;-74
2022/07/23 09:12:34;;;;;;;11.48;7.20;;;34.20;48.00;;;;;;5072078;28;20028;-76
2022/07/23 09:15:05;;;;;;;11.65;6.63;;;34.20;48.30;;;;;;5071871;28;20021;-75
2022/07/23 09:17:40;;;;;;;13.57;6.90;;;34.30;48.40;;;;;;5053653;28;20047;-70
2022/07/23 09:20:16;;;;;;;14.15;7.25;;;34.30;48.50;;;;;;5071998;28;20104;-70
2022/07/23 09:22:47;;;;;;;16.00;7.10;;;34.30;47.80;;;;;;5071959;28;20048;-72
2022/07/23 09:25:18;;;;;;;10.25;6.72;;;34.30;48.10;;;;;;5054084;28;20099;-71
2022/07/23 09:28:00;;;;;;;11.00;6.10;;;34.20;48.30;;;;;;5073229;28;20048;-71
2022/07/23 09:30:27;;;;;;;8.70;6.95;;;34.30;48.20;;;;;;5067503;28;20020;-74
2022/07/23 09:33:14;;;;;;;8.50;6.28;;;34.30;47.30;;;;;;5075646;28;20523;-72
2022/07/23 09:35:49;;;;;;;11.05;7.05;;;34.40;47.30;;;;;;5075693;28;20028;-73
2022/07/23 09:38:16;;;;;;;10.70;6.97;;;34.40;46.50;;;;;;5075591;28;20037;-72
2022/07/23 09:40:43;;;;;;;9.50;6.18;;;34.40;46.20;;;;;;5075191;28;20039;-69
2022/07/23 09:43:09;;;;;;;13.18;7.25;;;34.30;46.00;;;;;;5075269;28;20083;-70
2022/07/23 09:45:35;;;;;;;11.50;6.88;;;34.30;46.00;;;;;;5075091;28;20108;-69
2022/07/23 09:48:14;;;;;;;10.98;7.38;;;34.40;46.30;;;;;;5074910;28;20025;-70
2022/07/23 09:50:42;;;;;;;8.68;6.47;;;34.40;46.70;;;;;;5075480;28;20469;-71
2022/07/23 09:53:08;;;;;;;11.95;6.47;;;34.50;46.20;;;;;;5075068;28;20070;-73
2022/07/23 09:55:37;;;;;;;11.90;6.78;;;34.50;46.20;;;;;;5040077;28;20472;-70
2022/07/23 09:58:04;;;;;;;12.23;6.90;;;34.50;46.00;;;;;;5074998;28;20012;-72
2022/07/23 10:00:32;;;;;;;13.13;6.53;;;34.60;46.10;;;;;;5074898;28;20056;-72
2022/07/23 10:02:59;;;;;;;15.18;6.80;;;34.70;46.30;;;;;;5074930;28;20102;-70
2022/07/23 10:05:25;;;;;;;11.50;6.70;;;34.70;46.30;;;;;;5074961;28;20032;-69
2022/07/23 10:07:52;;;;;;;12.73;6.70;;;34.80;46.60;;;;;;5056884;28;20364;-72
2022/07/23 10:10:18;;;;;;;13.02;6.90;;;34.80;46.80;;;;;;5074870;28;20047;-70
2022/07/23 10:15:11;;;;;;;16.25;6.88;;;34.80;46.90;;;;;;5074501;28;20389;-76
2022/07/23 10:17:37;;;;;;;14.32;6.93;;;34.80;47.20;;;;;;5074866;28;20035;-71
2022/07/23 10:20:04;;;;;;;10.68;6.32;;;34.90;47.30;;;;;;5074487;28;20036;-73
2022/07/23 10:22:59;;;;;;;13.10;7.50;;;35.00;47.70;;;;;;5075070;28;20024;-73
2022/07/23 10:26:05;;;;;;;13.00;6.97;;;35.10;47.80;;;;;;5074524;28;20030;-75
2022/07/23 10:29:00;;;;;;;10.00;7.13;;;35.10;48.40;;;;;;5074261;28;20020;-71
2022/07/23 10:31:31;;;;;;;9.75;7.45;;;35.10;49.10;;;;;;5074239;28;20029;-76
2022/07/23 10:34:30;;;;;;;12.73;7.25;;;35.10;49.50;;;;;;5074682;28;20045;-72
2022/07/23 10:37:04;;;;;;;11.40;6.40;;;35.10;49.90;;;;;;5056124;28;20028;-72
2022/07/23 10:39:33;;;;;;;8.98;6.32;;;35.20;50.60;;;;;;5073711;28;20089;-76
2022/07/23 10:42:09;;;;;;;12.65;6.30;;;35.20;50.60;;;;;;5074601;28;20016;-76
2022/07/23 10:44:47;;;;;;;10.57;6.25;;;35.20;50.80;;;;;;5074164;28;20029;-76
2022/07/23 10:47:42;;;;;;;12.85;6.03;;;35.30;50.00;;;;;;5074460;28;20096;-75
2022/07/23 10:50:21;;;;;;;9.00;6.80;;;35.30;49.50;;;;;;5074296;28;20543;-76
2022/07/23 10:53:08;;;;;;;7.88;6.00;;;35.20;48.80;;;;;;5074367;28;20469;-76
2022/07/23 10:55:34;;;;;;;12.25;5.55;;;35.20;48.60;;;;;;5073515;28;20504;-74
2022/07/23 10:58:01;;;;;;;13.52;5.93;;;35.20;48.30;;;;;;5056054;28;20115;-73
2022/07/23 11:00:30;;;;;;;10.05;5.55;;;35.20;46.90;;;;;;5073918;28;20163;-73
2022/07/23 11:03:01;;;;;;;9.90;5.70;;;35.30;46.40;;;;;;5055845;28;20046;-73
2022/07/23 11:05:45;;;;;;;7.85;5.15;;;35.40;46.80;;;;;;5073532;28;20028;-74
2022/07/23 11:08:19;;;;;;;10.18;5.50;;;35.50;45.40;;;;;;5073679;28;20021;-72
2022/07/23 11:10:51;;;;;;;9.07;6.55;;;35.50;45.50;;;;;;5073600;28;20048;-71
2022/07/23 11:13:26;;;;;;;15.45;6.40;;;35.50;45.10;;;;;;5073977;28;20066;-72
2022/07/23 11:16:06;;;;;;;12.50;5.13;;;35.60;45.80;;;;;;5074962;28;20020;-72
2022/07/23 11:18:44;;;;;;;8.63;5.75;;;35.60;45.10;;;;;;5074251;28;20112;-75
2022/07/23 11:23:59;;;;;;;7.90;5.30;;;35.80;44.80;;;;;;5073227;28;20056;-69
2022/07/23 11:26:40;;;;;;;7.85;4.82;;;35.80;44.60;;;;;;5073197;28;20492;-72
2022/07/23 11:29:28;;;;;;;9.43;5.50;;;35.90;44.10;;;;;;5073225;28;20059;-71
2022/07/23 11:32:03;;;;;;;7.85;5.03;;;36.00;42.80;;;;;;5073374;28;20024;-71
2022/07/23 11:34:32;;;;;;;9.35;4.80;;;36.00;41.60;;;;;;5055211;28;20028;-73
2022/07/23 11:37:00;;;;;;;10.25;4.97;;;35.90;41.80;;;;;;5073163;28;20025;-69
2022/07/23 11:39:28;;;;;;;8.63;5.07;;;35.90;42.00;;;;;;5072705;28;20071;-71
2022/07/23 11:41:56;;;;;;;8.10;4.63;;;35.90;41.00;;;;;;5073431;28;20040;-71
2022/07/23 11:44:26;;;;;;;7.97;4.85;;;35.90;41.40;;;;;;5073096;28;20029;-71
2022/07/23 11:47:11;;;;;;;6.88;4.50;;;36.00;41.40;;;;;;5073143;28;20028;-75
2022/07/23 11:49:37;;;;;;;12.52;4.63;;;36.00;41.70;;;;;;5072977;28;20029;-71
2022/07/23 11:52:08;;;;;;;11.45;4.47;;;36.10;42.20;;;;;;5072490;28;20507;-73
2022/07/23 11:54:37;;;;;;;9.43;4.43;;;36.10;41.60;;;;;;5073003;28;20044;-76
2022/07/23 11:57:03;;;;;;;9.10;5.55;;;36.10;41.30;;;;;;5072932;28;20445;-71
2022/07/23 11:59:32;;;;;;;6.85;4.70;;;36.20;41.20;;;;;;5073154;28;20036;-72
2022/07/23 12:02:00;;;;;;;9.63;4.47;;;36.20;41.10;;;;;;5073390;28;20055;-72
2022/07/23 12:04:47;;;;;;;8.98;4.57;;;36.20;41.10;;;;;;5073339;28;20020;-70
2022/07/23 12:07:28;;;;;;;8.23;4.70;;;36.10;41.60;;;;;;5073078;28;20027;-69
2022/07/23 12:09:55;;;;;;;10.10;4.80;;;36.10;41.90;;;;;;5073132;28;20045;-71
2022/07/23 12:12:21;;;;;;;14.82;5.55;;;36.10;41.80;;;;;;5072423;28;20032;-70
2022/07/23 12:14:58;;;;;;;8.77;4.18;;;36.20;42.20;;;;;;5073319;28;20025;-73
2022/07/23 12:17:29;;;;;;;6.68;4.35;;;36.20;41.80;;;;;;5073302;28;20109;-70
2022/07/23 12:19:57;;;;;;;8.93;4.50;;;36.30;41.90;;;;;;5073047;28;20043;-74
2022/07/23 12:22:24;;;;;;;10.15;3.95;;;36.40;41.90;;;;;;5072890;28;20025;-71
2022/07/23 12:24:59;;;;;;;8.07;4.75;;;36.40;41.80;;;;;;5072777;28;20634;-74
2022/07/23 12:27:26;;;;;;;9.35;4.53;;;36.50;41.50;;;;;;5072743;28;20013;-73
2022/07/23 12:29:52;;;;;;;8.23;4.50;;;36.50;41.50;;;;;;5072567;28;20040;-72
2022/07/23 12:32:20;;;;;;;7.60;4.72;;;36.50;41.10;;;;;;5072846;28;20032;-74
2022/07/23 12:34:48;;;;;;;7.68;4.38;;;36.50;41.20;;;;;;5072854;28;20400;-73
2022/07/23 12:37:35;;;;;;;12.45;4.80;;;36.60;41.20;;;;;;5054625;28;20473;-74
2022/07/23 12:40:19;;;;;;;10.75;4.68;;;36.60;40.60;;;;;;5072671;28;20039;-73
2022/07/23 12:42:50;;;;;;;8.32;4.70;;;36.50;40.50;;;;;;5072678;28;20056;-72
2022/07/23 12:45:16;;;;;;;9.15;4.38;;;36.50;41.40;;;;;;5072379;28;20025;-75
2022/07/23 12:47:56;;;;;;;10.80;4.30;;;36.60;40.60;;;;;;5072734;28;20478;-75